createdAt,value
2023-04-30T00:00:16.832Z,649.80
2023-04-30T00:01:16.831Z,230.30
2023-04-30T00:02:16.892Z,518.70
2023-04-30T00:03:16.891Z,645.30
2023-04-30T00:04:16.807Z,643.20
2023-04-30T00:05:16.780Z,638.70
2023-04-30T00:06:16.835Z,649.20
2023-04-30T00:07:16.953Z,629.20
2023-04-30T00:08:16.735Z,620.80
2023-04-30T00:09:16.751Z,214.30
2023-04-30T00:10:16.709Z,445.30
2023-04-30T00:11:16.738Z,695.30
2023-04-30T00:12:16.748Z,700.00
2023-04-30T00:13:16.688Z,682.40
2023-04-30T00:14:16.674Z,605.60
2023-04-30T00:15:16.668Z,607.60
2023-04-30T00:16:16.709Z,593.00
2023-04-30T00:17:16.694Z,593.70
2023-04-30T00:18:16.635Z,577.40
2023-04-30T00:19:16.615Z,598.20
2023-04-30T00:20:16.613Z,593.60
2023-04-30T00:21:16.591Z,601.00
2023-04-30T00:22:16.620Z,556.30
2023-04-30T00:23:16.568Z,553.00
2023-04-30T00:24:16.552Z,540.00
2023-04-30T00:25:16.610Z,541.00
2023-04-30T00:26:16.546Z,536.70
2023-04-30T00:27:16.573Z,530.60
2023-04-30T00:28:16.515Z,558.10
2023-04-30T00:29:16.510Z,565.60
2023-04-30T00:30:16.493Z,540.40
2023-04-30T00:31:16.494Z,555.40
2023-04-30T00:32:16.571Z,520.30
2023-04-30T00:33:16.479Z,547.00
2023-04-30T00:34:16.442Z,575.10
2023-04-30T00:35:16.459Z,547.50
2023-04-30T00:36:16.417Z,581.40
2023-04-30T00:37:16.448Z,593.90
2023-04-30T00:38:16.397Z,624.30
2023-04-30T00:39:16.410Z,661.00
2023-04-30T00:40:16.373Z,696.40
2023-04-30T00:41:16.378Z,721.60
2023-04-30T00:42:16.419Z,754.70
2023-04-30T00:43:16.349Z,732.30
2023-04-30T00:44:16.360Z,750.40
2023-04-30T00:45:16.324Z,771.00
2023-04-30T00:46:16.320Z,758.70
2023-04-30T00:47:16.354Z,740.40
2023-04-30T00:48:16.296Z,746.20
2023-04-30T00:49:16.274Z,711.80
2023-04-30T00:50:16.390Z,687.20
2023-04-30T00:51:16.268Z,629.90
2023-04-30T00:52:16.296Z,668.60
2023-04-30T00:53:16.261Z,653.90
2023-04-30T00:54:16.220Z,614.00
2023-04-30T00:55:16.213Z,653.30
2023-04-30T00:56:16.191Z,631.10
2023-04-30T00:57:16.236Z,815.10
2023-04-30T00:58:16.171Z,834.80
2023-04-30T00:59:16.150Z,826.60
2023-04-30T01:00:16.176Z,828.10
2023-04-30T01:01:16.156Z,819.00
2023-04-30T01:02:16.188Z,808.80
2023-04-30T01:03:16.341Z,811.00
2023-04-30T01:04:16.099Z,817.70
2023-04-30T01:05:16.108Z,813.90
2023-04-30T01:06:16.118Z,785.80
2023-04-30T01:07:16.107Z,787.70
2023-04-30T01:08:16.071Z,784.60
2023-04-30T01:09:16.065Z,768.60
2023-04-30T01:10:16.057Z,755.80
2023-04-30T01:11:16.016Z,757.50
2023-04-30T01:12:16.099Z,743.60
2023-04-30T01:13:16.000Z,743.00
2023-04-30T01:14:15.991Z,729.80
2023-04-30T01:15:16.000Z,732.60
2023-04-30T01:16:15.986Z,729.10
2023-04-30T01:17:16.059Z,733.10
2023-04-30T01:18:16.102Z,729.40
2023-04-30T01:19:16.005Z,717.00
2023-04-30T01:20:15.945Z,711.40
2023-04-30T01:21:15.919Z,695.30
2023-04-30T01:22:15.944Z,716.70
2023-04-30T01:23:15.883Z,738.00
2023-04-30T01:24:15.886Z,736.90
2023-04-30T01:25:15.864Z,746.40
2023-04-30T01:26:15.852Z,794.00
2023-04-30T01:27:15.868Z,758.70
2023-04-30T01:28:15.850Z,731.90
2023-04-30T01:29:15.829Z,754.70
2023-04-30T01:30:15.820Z,774.10
2023-04-30T01:31:15.795Z,800.30
2023-04-30T01:32:15.838Z,759.60
2023-04-30T01:33:15.782Z,811.50
2023-04-30T01:34:15.766Z,803.80
2023-04-30T01:35:15.752Z,822.50
2023-04-30T01:36:15.753Z,899.30
2023-04-30T01:37:15.729Z,935.70
2023-04-30T01:38:15.756Z,832.70
2023-04-30T01:39:15.710Z,800.80
2023-04-30T01:40:15.707Z,811.00
2023-04-30T01:41:15.685Z,870.70
2023-04-30T01:42:15.676Z,908.60
2023-04-30T01:43:15.717Z,1022.70
2023-04-30T01:44:15.668Z,983.30
2023-04-30T01:45:15.658Z,953.50
2023-04-30T01:46:15.683Z,966.00
2023-04-30T01:47:15.648Z,948.10
2023-04-30T01:48:15.633Z,784.20
2023-04-30T01:49:15.604Z,997.30
2023-04-30T01:50:15.596Z,985.20
2023-04-30T01:51:15.589Z,941.40
2023-04-30T01:52:15.619Z,806.50
2023-04-30T01:53:15.606Z,946.40
2023-04-30T01:54:15.542Z,876.80
2023-04-30T01:55:15.528Z,962.60
2023-04-30T01:56:15.516Z,896.40
2023-04-30T01:57:15.552Z,877.00
2023-04-30T01:58:15.560Z,844.70
2023-04-30T01:59:15.492Z,893.90
2023-04-30T02:00:15.495Z,865.00
2023-04-30T02:01:15.524Z,828.30
2023-04-30T02:02:15.493Z,386.50
2023-04-30T02:03:15.515Z,294.10
2023-04-30T02:04:15.430Z,328.70
2023-04-30T02:05:15.436Z,1063.80
2023-04-30T02:06:15.459Z,1044.50
2023-04-30T02:07:15.451Z,1068.90
2023-04-30T02:08:15.408Z,1075.60
2023-04-30T02:09:15.384Z,1085.10
2023-04-30T02:10:15.394Z,1085.90
2023-04-30T02:11:15.364Z,1105.70
2023-04-30T02:12:15.358Z,1104.80
2023-04-30T02:13:15.366Z,1109.80
2023-04-30T02:14:15.352Z,1114.70
2023-04-30T02:15:15.353Z,1106.20
2023-04-30T02:16:15.364Z,1116.50
2023-04-30T02:17:15.322Z,1123.20
2023-04-30T02:18:15.303Z,1127.50
2023-04-30T02:19:15.518Z,1132.40
2023-04-30T02:20:15.269Z,1116.50
2023-04-30T02:21:15.261Z,1070.40
2023-04-30T02:22:15.309Z,1014.50
2023-04-30T02:23:15.214Z,1009.30
2023-04-30T02:24:15.198Z,1004.20
2023-04-30T02:25:15.199Z,1000.80
2023-04-30T02:26:15.175Z,989.80
2023-04-30T02:27:15.176Z,994.40
2023-04-30T02:28:15.199Z,991.50
2023-04-30T02:29:15.167Z,1011.10
2023-04-30T02:30:15.127Z,1027.20
2023-04-30T02:31:15.164Z,1053.20
2023-04-30T02:32:15.105Z,1054.00
2023-04-30T02:33:15.144Z,1059.70
2023-04-30T02:34:15.084Z,1065.90
2023-04-30T02:35:15.084Z,1089.30
2023-04-30T02:36:15.088Z,1069.70
2023-04-30T02:37:15.063Z,1057.50
2023-04-30T02:38:15.093Z,1043.80
2023-04-30T02:39:15.044Z,1041.80
2023-04-30T02:40:15.050Z,1026.10
2023-04-30T02:41:15.028Z,1014.50
2023-04-30T02:42:15.034Z,1007.30
2023-04-30T02:43:15.037Z,1011.50
2023-04-30T02:44:14.984Z,1016.70
2023-04-30T02:45:14.971Z,1011.50
2023-04-30T02:46:15.016Z,1006.50
2023-04-30T02:47:14.941Z,1005.60
2023-04-30T02:48:14.970Z,1010.00
2023-04-30T02:49:14.923Z,992.60
2023-04-30T02:50:14.919Z,996.50
2023-04-30T02:51:14.922Z,1021.80
2023-04-30T02:52:14.901Z,1033.50
2023-04-30T02:53:14.922Z,1041.60
2023-04-30T02:54:14.880Z,1036.00
2023-04-30T02:55:14.851Z,1034.50
2023-04-30T02:56:14.860Z,1032.60
2023-04-30T02:57:14.830Z,1025.80
2023-04-30T02:58:14.857Z,1027.80
2023-04-30T02:59:14.808Z,1020.80
2023-04-30T03:00:14.830Z,1007.10
2023-04-30T03:01:14.842Z,957.50
2023-04-30T03:02:14.828Z,939.00
2023-04-30T03:03:14.890Z,930.00
2023-04-30T03:04:14.788Z,929.50
2023-04-30T03:05:14.737Z,923.40
2023-04-30T03:06:14.792Z,935.50
2023-04-30T03:07:14.717Z,934.40
2023-04-30T03:08:14.736Z,943.00
2023-04-30T03:09:14.691Z,940.30
2023-04-30T03:10:14.706Z,937.10
2023-04-30T03:11:14.684Z,945.70
2023-04-30T03:12:14.671Z,943.50
2023-04-30T03:13:14.697Z,948.40
2023-04-30T03:14:14.649Z,936.50
2023-04-30T03:15:14.637Z,936.30
2023-04-30T03:16:14.687Z,921.30
2023-04-30T03:17:14.613Z,923.20
2023-04-30T03:18:14.695Z,906.90
2023-04-30T03:19:14.585Z,910.80
2023-04-30T03:20:14.587Z,914.50
2023-04-30T03:21:14.565Z,910.60
2023-04-30T03:22:14.581Z,921.90
2023-04-30T03:23:14.569Z,906.60
2023-04-30T03:24:14.516Z,898.40
2023-04-30T03:25:14.507Z,890.90
2023-04-30T03:26:14.507Z,906.10
2023-04-30T03:27:14.487Z,904.80
2023-04-30T03:28:14.517Z,902.50
2023-04-30T03:29:14.487Z,904.00
2023-04-30T03:30:14.461Z,909.80
2023-04-30T03:31:14.496Z,908.10
2023-04-30T03:32:14.458Z,900.60
2023-04-30T03:33:14.515Z,889.60
2023-04-30T03:34:14.431Z,886.90
2023-04-30T03:35:14.399Z,856.90
2023-04-30T03:36:14.401Z,853.00
2023-04-30T03:37:14.378Z,849.20
2023-04-30T03:38:14.536Z,844.80
2023-04-30T03:39:14.360Z,857.80
2023-04-30T03:40:14.419Z,831.20
2023-04-30T03:41:14.339Z,834.10
2023-04-30T03:42:14.329Z,827.90
2023-04-30T03:43:14.368Z,829.80
2023-04-30T03:44:14.312Z,840.50
2023-04-30T03:45:14.309Z,838.60
2023-04-30T03:46:14.313Z,848.10
2023-04-30T03:47:14.278Z,842.10
2023-04-30T03:48:14.310Z,838.00
2023-04-30T03:49:14.252Z,828.40
2023-04-30T03:50:14.243Z,777.50
2023-04-30T03:51:14.244Z,759.40
2023-04-30T03:52:14.219Z,758.90
2023-04-30T03:53:14.221Z,769.50
2023-04-30T03:54:14.191Z,786.80
2023-04-30T03:55:14.186Z,823.80
2023-04-30T03:56:14.166Z,862.30
2023-04-30T03:57:14.176Z,883.40
2023-04-30T03:58:14.186Z,890.10
2023-04-30T03:59:14.139Z,889.10
2023-04-30T04:00:14.136Z,888.00
2023-04-30T04:01:14.125Z,887.40
2023-04-30T04:02:14.150Z,903.60
2023-04-30T04:03:14.150Z,901.50
2023-04-30T04:04:14.120Z,896.80
2023-04-30T04:05:14.068Z,911.20
2023-04-30T04:06:14.087Z,917.00
2023-04-30T04:07:14.056Z,918.00
2023-04-30T04:08:14.072Z,930.10
2023-04-30T04:09:14.057Z,926.50
2023-04-30T04:10:14.027Z,922.40
2023-04-30T04:11:14.009Z,908.10
2023-04-30T04:12:13.990Z,915.30
2023-04-30T04:13:14.029Z,913.90
2023-04-30T04:14:13.967Z,928.80
2023-04-30T04:15:13.955Z,926.10
2023-04-30T04:16:14.005Z,926.00
2023-04-30T04:17:13.932Z,915.30
2023-04-30T04:18:13.989Z,918.90
2023-04-30T04:19:14.267Z,919.80
2023-04-30T04:20:14.265Z,909.80
2023-04-30T04:21:13.896Z,904.40
2023-04-30T04:22:13.896Z,888.90
2023-04-30T04:23:13.888Z,871.10
2023-04-30T04:24:13.898Z,841.30
2023-04-30T04:25:13.846Z,825.70
2023-04-30T04:26:13.841Z,816.00
2023-04-30T04:27:13.823Z,801.90
2023-04-30T04:28:13.804Z,778.90
2023-04-30T04:29:13.854Z,746.30
2023-04-30T04:30:13.830Z,747.90
2023-04-30T04:31:13.801Z,750.60
2023-04-30T04:32:13.776Z,721.70
2023-04-30T04:33:13.757Z,688.40
2023-04-30T04:34:13.785Z,693.10
2023-04-30T04:35:13.781Z,679.50
2023-04-30T04:36:13.743Z,570.20
2023-04-30T04:37:13.720Z,557.10
2023-04-30T04:38:13.708Z,543.30
2023-04-30T04:39:13.728Z,225.70
2023-04-30T04:40:13.686Z,222.30
2023-04-30T04:41:13.664Z,785.90
2023-04-30T04:42:13.664Z,835.40
2023-04-30T04:43:13.645Z,797.90
2023-04-30T04:44:13.680Z,755.60
2023-04-30T04:45:13.613Z,711.20
2023-04-30T04:46:14.449Z,705.40
2023-04-30T04:47:13.591Z,695.60
2023-04-30T04:48:13.594Z,700.10
2023-04-30T04:49:13.618Z,686.30
2023-04-30T04:50:13.578Z,675.90
2023-04-30T04:51:13.554Z,698.30
2023-04-30T04:52:13.544Z,696.70
2023-04-30T04:53:13.528Z,648.30
2023-04-30T04:54:13.555Z,604.80
2023-04-30T04:55:13.506Z,584.60
2023-04-30T04:56:13.514Z,592.30
2023-04-30T04:57:13.497Z,608.00
2023-04-30T04:58:13.474Z,627.20
2023-04-30T04:59:13.487Z,624.70
2023-04-30T05:00:13.450Z,553.10
2023-04-30T05:01:13.467Z,544.60
2023-04-30T05:02:13.411Z,534.90
2023-04-30T05:03:13.508Z,520.70
2023-04-30T05:04:13.432Z,521.20
2023-04-30T05:05:13.410Z,661.50
2023-04-30T05:06:13.429Z,705.30
2023-04-30T05:07:13.374Z,684.30
2023-04-30T05:08:13.381Z,689.70
2023-04-30T05:09:13.440Z,655.30
2023-04-30T05:10:13.345Z,181.60
2023-04-30T05:11:15.541Z,220.40
2023-04-30T05:12:13.309Z,386.10
2023-04-30T05:13:13.329Z,268.10
2023-04-30T05:14:13.335Z,271.20
2023-04-30T05:15:13.329Z,275.70
2023-04-30T05:16:13.322Z,418.20
2023-04-30T05:17:13.270Z,235.50
2023-04-30T05:18:13.253Z,382.40
2023-04-30T05:19:13.285Z,227.50
2023-04-30T05:20:13.246Z,206.00
2023-04-30T05:21:13.212Z,339.90
2023-04-30T05:22:13.206Z,290.80
2023-04-30T05:23:13.200Z,201.50
2023-04-30T05:24:13.233Z,170.30
2023-04-30T05:25:13.161Z,314.70
2023-04-30T05:26:13.141Z,194.50
2023-04-30T05:27:13.147Z,198.30
2023-04-30T05:28:13.132Z,350.10
2023-04-30T05:29:13.166Z,281.00
2023-04-30T05:30:13.121Z,271.70
2023-04-30T05:31:13.137Z,248.70
2023-04-30T05:32:13.156Z,360.50
2023-04-30T05:33:13.145Z,96.40
2023-04-30T05:34:13.102Z,77.70
2023-04-30T05:35:13.069Z,338.80
2023-04-30T05:36:13.054Z,115.40
2023-04-30T05:37:13.079Z,83.90
2023-04-30T05:38:13.043Z,264.90
2023-04-30T05:39:13.048Z,93.30
2023-04-30T05:40:13.019Z,85.30
2023-04-30T05:41:13.148Z,188.70
2023-04-30T05:42:13.043Z,64.10
2023-04-30T05:43:12.960Z,91.20
2023-04-30T05:44:12.993Z,108.50
2023-04-30T05:45:12.936Z,180.10
2023-04-30T05:46:12.975Z,181.80
2023-04-30T05:47:12.934Z,181.00
2023-04-30T05:48:12.991Z,63.50
2023-04-30T05:49:12.946Z,50.30
2023-04-30T05:50:12.891Z,51.60
2023-04-30T05:51:12.899Z,60.20
2023-04-30T05:52:12.849Z,82.50
2023-04-30T05:53:12.858Z,271.20
2023-04-30T05:54:12.924Z,196.50
2023-04-30T05:55:12.851Z,113.70
2023-04-30T05:56:12.814Z,71.30
2023-04-30T05:57:12.798Z,58.00
2023-04-30T05:58:12.802Z,220.20
2023-04-30T05:59:12.819Z,318.90
2023-04-30T06:00:12.797Z,60.70
2023-04-30T06:01:12.793Z,51.40
2023-04-30T06:02:12.790Z,144.20
2023-04-30T06:03:12.791Z,309.80
2023-04-30T06:04:12.766Z,243.50
2023-04-30T06:05:15.329Z,60.80
2023-04-30T06:06:12.831Z,110.10
2023-04-30T06:07:12.719Z,247.40
2023-04-30T06:08:12.686Z,59.40
2023-04-30T06:09:12.730Z,64.80
2023-04-30T06:10:12.807Z,299.10
2023-04-30T06:11:12.678Z,297.60
2023-04-30T06:12:12.655Z,157.00
2023-04-30T06:13:12.661Z,41.20
2023-04-30T06:14:12.673Z,316.00
2023-04-30T06:15:12.628Z,300.30
2023-04-30T06:16:12.630Z,246.50
2023-04-30T06:17:12.606Z,239.40
2023-04-30T06:18:12.613Z,420.60
2023-04-30T06:19:12.596Z,153.00
2023-04-30T06:20:12.539Z,46.40
2023-04-30T06:21:12.530Z,21.80
2023-04-30T06:22:12.573Z,138.90
2023-04-30T06:23:12.524Z,30.20
2023-04-30T06:24:12.570Z,170.80
2023-04-30T06:25:12.489Z,271.50
2023-04-30T06:26:12.497Z,206.40
2023-04-30T06:27:12.482Z,334.20
2023-04-30T06:28:12.479Z,290.70
2023-04-30T06:29:12.459Z,293.20
2023-04-30T06:30:12.472Z,367.10
2023-04-30T06:31:12.452Z,355.10
2023-04-30T06:32:12.454Z,75.70
2023-04-30T06:33:12.416Z,29.20
2023-04-30T06:34:12.376Z,41.90
2023-04-30T06:35:12.436Z,21.00
2023-04-30T06:36:12.357Z,20.90
2023-04-30T06:37:12.368Z,20.30
2023-04-30T06:38:12.350Z,24.40
2023-04-30T06:39:12.360Z,16.80
2023-04-30T06:40:12.376Z,18.50
2023-04-30T06:41:12.308Z,16.80
2023-04-30T06:42:12.300Z,20.40
2023-04-30T06:43:12.303Z,22.90
2023-04-30T06:44:12.290Z,17.90
2023-04-30T06:45:12.348Z,25.00
2023-04-30T06:46:12.288Z,19.00
2023-04-30T06:47:12.257Z,16.80
2023-04-30T06:48:12.239Z,20.30
2023-04-30T06:49:12.238Z,22.00
2023-04-30T06:50:12.264Z,36.70
2023-04-30T06:51:12.201Z,21.20
2023-04-30T06:52:12.267Z,24.30
2023-04-30T06:53:12.171Z,31.10
2023-04-30T06:54:12.166Z,33.50
2023-04-30T06:55:12.229Z,48.40
2023-04-30T06:56:12.155Z,42.00
2023-04-30T06:57:12.139Z,27.30
2023-04-30T06:58:12.133Z,26.70
2023-04-30T06:59:12.125Z,27.40
2023-04-30T07:00:12.148Z,21.70
2023-04-30T07:01:12.105Z,24.60
2023-04-30T07:02:12.168Z,23.50
2023-04-30T07:03:12.158Z,21.20
2023-04-30T07:04:12.064Z,28.10
2023-04-30T07:05:12.100Z,20.40
2023-04-30T07:06:12.087Z,21.80
2023-04-30T07:07:12.036Z,25.10
2023-04-30T07:08:12.065Z,25.00
2023-04-30T07:09:12.034Z,22.10
2023-04-30T07:10:12.014Z,20.30
2023-04-30T07:11:11.972Z,23.20
2023-04-30T07:12:11.999Z,19.80
2023-04-30T07:13:11.946Z,20.80
2023-04-30T07:14:11.944Z,22.60
2023-04-30T07:15:11.986Z,20.40
2023-04-30T07:16:12.008Z,40.50
2023-04-30T07:17:11.912Z,30.80
2023-04-30T07:18:11.912Z,19.50
2023-04-30T07:19:11.898Z,51.10
2023-04-30T07:20:11.895Z,33.80
2023-04-30T07:21:11.882Z,74.60
2023-04-30T07:22:11.860Z,58.00
2023-04-30T07:23:11.872Z,71.30
2023-04-30T07:24:11.842Z,36.60
2023-04-30T07:25:11.816Z,34.30
2023-04-30T07:26:11.836Z,110.10
2023-04-30T07:27:11.836Z,78.40
2023-04-30T07:28:11.785Z,36.30
2023-04-30T07:29:11.791Z,26.60
2023-04-30T07:30:11.784Z,28.60
2023-04-30T07:31:11.815Z,34.10
2023-04-30T07:32:11.752Z,64.10
2023-04-30T07:33:11.740Z,45.80
2023-04-30T07:34:11.705Z,39.30
2023-04-30T07:35:11.708Z,38.90
2023-04-30T07:36:11.737Z,145.70
2023-04-30T07:37:11.711Z,35.80
2023-04-30T07:38:11.666Z,30.50
2023-04-30T07:39:11.767Z,24.30
2023-04-30T07:40:13.267Z,87.30
2023-04-30T07:41:11.663Z,72.90
2023-04-30T07:42:11.645Z,32.90
2023-04-30T07:43:11.604Z,59.10
2023-04-30T07:44:11.614Z,33.70
2023-04-30T07:45:11.566Z,118.00
2023-04-30T07:46:11.639Z,50.60
2023-04-30T07:47:11.575Z,41.10
2023-04-30T07:48:11.552Z,52.10
2023-04-30T07:49:11.536Z,29.70
2023-04-30T07:50:11.548Z,35.00
2023-04-30T07:51:11.540Z,32.10
2023-04-30T07:52:11.519Z,29.50
2023-04-30T07:53:11.492Z,22.70
2023-04-30T07:54:11.509Z,45.30
2023-04-30T07:55:11.501Z,25.70
2023-04-30T07:56:11.504Z,37.00
2023-04-30T07:57:11.450Z,23.60
2023-04-30T07:58:11.480Z,24.10
2023-04-30T07:59:11.426Z,79.60
2023-04-30T08:00:11.444Z,31.50
2023-04-30T08:01:11.458Z,70.40
2023-04-30T08:02:11.429Z,56.30
2023-04-30T08:03:11.474Z,45.80
2023-04-30T08:04:11.400Z,258.80
2023-04-30T08:05:11.373Z,174.80
2023-04-30T08:06:11.424Z,302.70
2023-04-30T08:07:11.356Z,98.50
2023-04-30T08:08:11.346Z,308.20
2023-04-30T08:09:11.335Z,478.90
2023-04-30T08:10:11.337Z,102.70
2023-04-30T08:11:11.344Z,166.70
2023-04-30T08:12:11.299Z,87.00
2023-04-30T08:13:11.304Z,114.80
2023-04-30T08:14:11.276Z,185.20
2023-04-30T08:15:11.252Z,115.20
2023-04-30T08:16:11.358Z,99.80
2023-04-30T08:17:11.205Z,92.10
2023-04-30T08:18:11.241Z,153.40
2023-04-30T08:19:11.229Z,155.60
2023-04-30T08:20:11.204Z,73.20
2023-04-30T08:21:11.207Z,31.10
2023-04-30T08:22:11.169Z,20.60
2023-04-30T08:23:11.168Z,31.40
2023-04-30T08:24:11.171Z,161.10
2023-04-30T08:25:11.157Z,187.70
2023-04-30T08:26:11.156Z,127.00
2023-04-30T08:27:11.118Z,103.70
2023-04-30T08:28:11.163Z,474.70
2023-04-30T08:29:11.094Z,48.00
2023-04-30T08:30:11.091Z,145.50
2023-04-30T08:31:11.144Z,33.50
2023-04-30T08:32:11.127Z,147.70
2023-04-30T08:33:11.112Z,120.70
2023-04-30T08:34:11.067Z,118.30
2023-04-30T08:35:11.037Z,145.90
2023-04-30T08:36:11.065Z,98.70
2023-04-30T08:37:11.006Z,54.10
2023-04-30T08:38:11.006Z,42.00
2023-04-30T08:39:10.997Z,63.70
2023-04-30T08:40:11.004Z,83.80
2023-04-30T08:41:11.025Z,89.80
2023-04-30T08:42:10.967Z,91.40
2023-04-30T08:43:10.946Z,76.60
2023-04-30T08:44:10.920Z,35.40
2023-04-30T08:45:10.900Z,89.60
2023-04-30T08:46:10.963Z,63.60
2023-04-30T08:47:10.898Z,37.40
2023-04-30T08:48:10.874Z,49.80
2023-04-30T08:49:10.874Z,135.00
2023-04-30T08:50:10.871Z,77.00
2023-04-30T08:51:10.894Z,38.20
2023-04-30T08:52:10.848Z,103.30
2023-04-30T08:53:10.808Z,209.70
2023-04-30T08:54:10.805Z,81.40
2023-04-30T08:55:10.806Z,149.80
2023-04-30T08:56:10.823Z,67.10
2023-04-30T08:57:10.766Z,58.00
2023-04-30T08:58:10.764Z,129.60
2023-04-30T08:59:10.754Z,98.90
2023-04-30T09:00:10.749Z,330.70
2023-04-30T09:01:10.835Z,382.70
2023-04-30T09:02:10.879Z,302.40
2023-04-30T09:03:10.784Z,148.60
2023-04-30T09:04:10.824Z,151.90
2023-04-30T09:05:10.689Z,119.10
2023-04-30T09:06:10.690Z,117.20
2023-04-30T09:07:10.694Z,91.40
2023-04-30T09:08:10.696Z,146.10
2023-04-30T09:09:10.624Z,128.10
2023-04-30T09:10:10.641Z,138.20
2023-04-30T09:11:10.632Z,91.10
2023-04-30T09:12:10.642Z,159.30
2023-04-30T09:13:10.585Z,153.80
2023-04-30T09:14:10.594Z,197.70
2023-04-30T09:15:10.560Z,266.70
2023-04-30T09:16:10.564Z,220.50
2023-04-30T09:17:10.585Z,80.20
2023-04-30T09:18:10.568Z,175.60
2023-04-30T09:19:10.514Z,110.30
2023-04-30T09:20:10.528Z,119.00
2023-04-30T09:21:10.499Z,81.70
2023-04-30T09:22:10.545Z,87.90
2023-04-30T09:23:10.485Z,133.60
2023-04-30T09:24:10.539Z,116.40
2023-04-30T09:25:10.473Z,197.90
2023-04-30T09:26:10.480Z,123.90
2023-04-30T09:27:10.479Z,66.90
2023-04-30T09:28:10.514Z,47.70
2023-04-30T09:29:10.442Z,99.30
2023-04-30T09:30:10.400Z,146.80
2023-04-30T09:31:10.388Z,187.40
2023-04-30T09:32:10.456Z,174.50
2023-04-30T09:33:12.215Z,213.40
2023-04-30T09:34:10.385Z,160.40
2023-04-30T09:35:10.363Z,103.30
2023-04-30T09:36:10.368Z,60.90
2023-04-30T09:37:10.363Z,165.90
2023-04-30T09:38:10.315Z,107.60
2023-04-30T09:39:12.055Z,109.70
2023-04-30T09:40:10.286Z,184.90
2023-04-30T09:41:10.276Z,232.50
2023-04-30T09:42:10.361Z,178.80
2023-04-30T09:43:10.236Z,262.90
2023-04-30T09:44:10.260Z,170.80
2023-04-30T09:45:10.224Z,229.30
2023-04-30T09:46:10.284Z,268.40
2023-04-30T09:47:10.273Z,270.60
2023-04-30T09:48:17.105Z,233.00
2023-04-30T09:49:11.202Z,215.60
2023-04-30T09:50:10.188Z,227.40
2023-04-30T09:51:10.164Z,231.10
2023-04-30T09:52:10.191Z,217.80
2023-04-30T09:53:10.162Z,181.80
2023-04-30T09:54:10.150Z,304.20
2023-04-30T09:55:10.147Z,190.70
2023-04-30T09:56:10.108Z,195.60
2023-04-30T09:57:10.122Z,179.90
2023-04-30T09:58:10.108Z,193.00
2023-04-30T09:59:10.080Z,266.80
2023-04-30T10:00:10.050Z,338.30
2023-04-30T10:01:10.111Z,83.90
2023-04-30T10:02:10.072Z,97.90
2023-04-30T10:03:10.064Z,101.10
2023-04-30T10:04:10.058Z,121.40
2023-04-30T10:05:09.989Z,118.50
2023-04-30T10:06:10.035Z,126.20
2023-04-30T10:07:10.032Z,146.70
2023-04-30T10:08:09.981Z,241.30
2023-04-30T10:09:09.966Z,220.30
2023-04-30T10:10:10.031Z,132.10
2023-04-30T10:11:09.938Z,76.00
2023-04-30T10:12:09.972Z,60.70
2023-04-30T10:13:09.964Z,103.30
2023-04-30T10:14:09.920Z,82.50
2023-04-30T10:15:09.895Z,139.40
2023-04-30T10:16:09.902Z,84.30
2023-04-30T10:17:09.921Z,140.40
2023-04-30T10:18:09.900Z,131.40
2023-04-30T10:19:09.871Z,106.60
2023-04-30T10:20:09.851Z,149.50
2023-04-30T10:21:09.848Z,77.60
2023-04-30T10:22:09.871Z,81.00
2023-04-30T10:23:09.812Z,130.60
2023-04-30T10:24:09.823Z,166.40
2023-04-30T10:25:09.794Z,147.50
2023-04-30T10:26:09.792Z,254.50
2023-04-30T10:27:09.843Z,179.50
2023-04-30T10:28:09.789Z,278.10
2023-04-30T10:29:09.741Z,184.40
2023-04-30T10:30:09.755Z,187.80
2023-04-30T10:31:09.738Z,151.00
2023-04-30T10:32:09.831Z,153.90
2023-04-30T10:33:09.803Z,160.60
2023-04-30T10:34:09.692Z,154.30
2023-04-30T10:35:09.700Z,198.50
2023-04-30T10:36:09.672Z,127.40
2023-04-30T10:37:09.658Z,98.10
2023-04-30T10:38:09.682Z,122.60
2023-04-30T10:39:09.622Z,121.40
2023-04-30T10:40:09.637Z,103.70
2023-04-30T10:41:09.684Z,102.40
2023-04-30T10:42:09.603Z,101.50
2023-04-30T10:43:09.635Z,93.60
2023-04-30T10:44:09.597Z,81.80
2023-04-30T10:45:09.572Z,80.50
2023-04-30T10:46:09.583Z,113.50
2023-04-30T10:47:09.538Z,73.50
2023-04-30T10:48:09.605Z,88.50
2023-04-30T10:49:09.526Z,85.20
2023-04-30T10:50:09.515Z,84.60
2023-04-30T10:51:09.512Z,166.20
2023-04-30T10:52:09.515Z,90.10
2023-04-30T10:53:09.536Z,109.00
2023-04-30T10:54:09.465Z,63.40
2023-04-30T10:55:09.474Z,84.60
2023-04-30T10:56:09.862Z,74.10
2023-04-30T10:57:09.453Z,74.50
2023-04-30T10:58:09.473Z,66.30
2023-04-30T10:59:09.468Z,63.10
2023-04-30T11:00:09.419Z,61.10
2023-04-30T11:01:09.441Z,60.80
2023-04-30T11:02:09.396Z,59.40
2023-04-30T11:03:09.466Z,76.10
2023-04-30T11:04:09.385Z,51.80
2023-04-30T11:05:09.384Z,54.90
2023-04-30T11:06:09.410Z,63.00
2023-04-30T11:07:09.314Z,125.40
2023-04-30T11:08:09.358Z,78.30
2023-04-30T11:09:09.330Z,163.80
2023-04-30T11:10:09.317Z,209.80
2023-04-30T11:11:09.306Z,224.80
2023-04-30T11:12:09.275Z,119.00
2023-04-30T11:13:09.305Z,118.60
2023-04-30T11:14:09.235Z,102.40
2023-04-30T11:15:09.268Z,103.40
2023-04-30T11:16:09.344Z,77.00
2023-04-30T11:17:09.228Z,133.30
2023-04-30T11:18:09.351Z,129.60
2023-04-30T11:19:11.294Z,92.90
2023-04-30T11:20:09.196Z,98.40
2023-04-30T11:21:09.166Z,104.30
2023-04-30T11:22:09.182Z,151.00
2023-04-30T11:23:09.209Z,105.30
2023-04-30T11:24:09.160Z,121.00
2023-04-30T11:25:09.130Z,93.30
2023-04-30T11:26:09.151Z,82.20
2023-04-30T11:27:09.109Z,79.90
2023-04-30T11:28:09.164Z,77.30
2023-04-30T11:29:09.163Z,99.80
2023-04-30T11:30:09.110Z,140.00
2023-04-30T11:31:09.194Z,136.00
2023-04-30T11:32:09.081Z,117.00
2023-04-30T11:33:09.295Z,109.90
2023-04-30T11:34:09.054Z,96.20
2023-04-30T11:35:09.032Z,81.50
2023-04-30T11:36:09.003Z,97.80
2023-04-30T11:37:09.011Z,111.70
2023-04-30T11:38:09.166Z,171.10
2023-04-30T11:39:09.003Z,179.40
2023-04-30T11:40:09.002Z,97.10
2023-04-30T11:41:08.954Z,200.50
2023-04-30T11:42:08.965Z,190.70
2023-04-30T11:43:09.005Z,118.50
2023-04-30T11:44:08.947Z,195.50
2023-04-30T11:45:08.959Z,85.60
2023-04-30T11:46:08.986Z,61.10
2023-04-30T11:47:09.027Z,46.20
2023-04-30T11:48:08.989Z,48.50
2023-04-30T11:49:08.940Z,48.00
2023-04-30T11:50:08.944Z,184.80
2023-04-30T11:51:08.870Z,141.00
2023-04-30T11:52:08.863Z,157.10
2023-04-30T11:53:08.864Z,144.70
2023-04-30T11:54:08.820Z,124.00
2023-04-30T11:55:08.843Z,145.30
2023-04-30T11:56:08.814Z,111.40
2023-04-30T11:57:08.821Z,83.80
2023-04-30T11:58:08.829Z,135.90
2023-04-30T11:59:08.794Z,171.20
2023-04-30T12:00:08.919Z,155.40
2023-04-30T12:01:08.775Z,131.50
2023-04-30T12:02:09.651Z,145.20
2023-04-30T12:03:08.889Z,153.50
2023-04-30T12:04:08.810Z,205.00
2023-04-30T12:05:08.708Z,132.60
2023-04-30T12:06:08.716Z,137.30
2023-04-30T12:07:08.686Z,161.80
2023-04-30T12:08:08.725Z,135.40
2023-04-30T12:09:08.771Z,146.70
2023-04-30T12:10:08.671Z,167.30
2023-04-30T12:11:08.652Z,212.00
2023-04-30T12:12:08.648Z,169.30
2023-04-30T12:13:08.676Z,106.30
2023-04-30T12:14:08.603Z,70.40
2023-04-30T12:15:08.625Z,111.70
2023-04-30T12:16:08.636Z,122.10
2023-04-30T12:17:08.590Z,125.10
2023-04-30T12:18:08.650Z,84.40
2023-04-30T12:19:08.576Z,52.60
2023-04-30T12:20:08.619Z,66.50
2023-04-30T12:21:08.528Z,84.50
2023-04-30T12:22:08.528Z,82.10
2023-04-30T12:23:08.559Z,73.70
2023-04-30T12:24:08.514Z,109.80
2023-04-30T12:25:08.545Z,79.80
2023-04-30T12:26:08.496Z,53.30
2023-04-30T12:27:08.470Z,35.10
2023-04-30T12:28:08.502Z,48.50
2023-04-30T12:29:08.457Z,57.80
2023-04-30T12:30:08.480Z,43.40
2023-04-30T12:31:08.421Z,90.10
2023-04-30T12:32:08.474Z,76.80
2023-04-30T12:33:08.466Z,59.70